createdAt,value
2019-03-23T00:00:15.400Z,104.93
2019-03-23T00:02:44.024Z,104.13
2019-03-23T00:05:13.040Z,107.67
2019-03-23T00:07:41.700Z,108.63
2019-03-23T00:10:10.371Z,107.20
2019-03-23T00:12:39.102Z,102.33
2019-03-23T00:15:28.534Z,109.23
2019-03-23T00:17:57.141Z,105.07
2019-03-23T00:20:25.711Z,106.97
2019-03-23T00:22:54.397Z,110.40
2019-03-23T00:25:22.955Z,112.50
2019-03-23T00:27:51.533Z,106.67
2019-03-23T00:30:20.164Z,98.07
2019-03-23T00:32:48.900Z,88.50
2019-03-23T00:35:17.460Z,88.77
2019-03-23T00:37:46.422Z,89.17
2019-03-23T00:40:15.128Z,80.63
2019-03-23T00:42:44.824Z,78.27
2019-03-23T00:45:13.595Z,81.97
2019-03-23T00:47:42.427Z,85.40
2019-03-23T00:50:11.260Z,73.10
2019-03-23T00:52:40.323Z,73.63
2019-03-23T00:55:09.861Z,78.77
2019-03-23T00:57:40.318Z,76.50
2019-03-23T01:00:14.012Z,73.10
2019-03-23T01:02:48.496Z,75.73
2019-03-23T01:05:19.248Z,69.67
2019-03-23T01:07:47.984Z,79.20
2019-03-23T01:10:16.917Z,78.63
2019-03-23T01:12:45.730Z,89.00
2019-03-23T01:15:16.913Z,74.47
2019-03-23T01:17:45.632Z,77.63
2019-03-23T01:20:14.624Z,81.33
2019-03-23T01:22:43.719Z,82.50
2019-03-23T01:25:15.441Z,84.70
2019-03-23T01:27:44.346Z,80.60
2019-03-23T01:30:14.540Z,76.50
2019-03-23T01:32:43.422Z,74.00
2019-03-23T01:35:13.706Z,73.43
2019-03-23T01:37:43.365Z,75.53
2019-03-23T01:40:12.185Z,73.03
2019-03-23T01:42:40.855Z,69.73
2019-03-23T01:45:12.260Z,70.60
2019-03-23T01:47:41.115Z,64.73
2019-03-23T01:50:11.496Z,70.00
2019-03-23T01:52:40.264Z,80.03
2019-03-23T01:55:09.545Z,74.67
2019-03-23T01:57:38.437Z,75.07
2019-03-23T02:00:10.102Z,74.80
2019-03-23T02:02:38.956Z,68.37
2019-03-23T02:05:09.372Z,78.90
2019-03-23T02:07:38.099Z,66.80
2019-03-23T02:10:08.811Z,70.87
2019-03-23T02:12:37.528Z,69.93
2019-03-23T02:15:08.431Z,71.03
2019-03-23T02:17:37.198Z,74.20
2019-03-23T02:20:08.451Z,72.00
2019-03-23T02:22:37.136Z,79.70
2019-03-23T02:25:07.768Z,74.13
2019-03-23T02:27:36.626Z,70.03
2019-03-23T02:30:10.313Z,70.23
2019-03-23T02:32:39.341Z,73.27
2019-03-23T02:35:08.639Z,79.20
2019-03-23T02:37:37.535Z,78.53
2019-03-23T02:40:07.516Z,79.20
2019-03-23T02:42:36.336Z,82.20
2019-03-23T02:45:10.757Z,75.63
2019-03-23T02:47:39.556Z,75.57
2019-03-23T02:50:10.076Z,81.83
2019-03-23T02:52:38.879Z,75.30
2019-03-23T02:55:09.340Z,76.40
2019-03-23T02:57:38.174Z,79.30
2019-03-23T03:00:15.332Z,82.63
2019-03-23T03:02:44.421Z,72.63
2019-03-23T03:05:13.246Z,75.77
2019-03-23T03:07:43.642Z,78.77
2019-03-23T03:10:14.568Z,77.87
2019-03-23T03:12:43.263Z,74.70
2019-03-23T03:15:12.499Z,77.17
2019-03-23T03:17:41.295Z,69.30
2019-03-23T03:20:11.090Z,80.40
2019-03-23T03:22:39.712Z,74.73
2019-03-23T03:25:09.277Z,70.83
2019-03-23T03:27:37.988Z,75.87
2019-03-23T03:30:11.015Z,75.40
2019-03-23T03:32:39.679Z,72.27
2019-03-23T03:35:08.723Z,78.23
2019-03-23T03:37:37.378Z,82.83
2019-03-23T03:40:07.527Z,77.37
2019-03-23T03:42:36.310Z,78.93
2019-03-23T03:45:09.989Z,75.03
2019-03-23T03:47:41.215Z,75.73
2019-03-23T03:50:10.638Z,79.07
2019-03-23T03:52:39.347Z,78.13
2019-03-23T03:55:08.210Z,79.87
2019-03-23T03:57:36.873Z,78.83
2019-03-23T04:00:09.676Z,77.93
2019-03-23T04:02:38.803Z,77.23
2019-03-23T04:05:07.843Z,85.97
2019-03-23T04:07:36.629Z,83.53
2019-03-23T04:10:07.342Z,83.27
2019-03-23T04:12:36.092Z,79.43
2019-03-23T04:15:06.949Z,83.60
2019-03-23T04:17:35.607Z,80.90
2019-03-23T04:20:06.917Z,82.70
2019-03-23T04:22:35.644Z,78.73
2019-03-23T04:25:06.775Z,90.40
2019-03-23T04:27:35.927Z,82.83
2019-03-23T04:30:07.786Z,84.13
2019-03-23T04:32:36.565Z,84.13
2019-03-23T04:35:06.551Z,77.33
2019-03-23T04:37:35.204Z,85.43
2019-03-23T04:40:04.912Z,82.70
2019-03-23T04:42:33.630Z,83.23
2019-03-23T04:45:02.674Z,88.17
2019-03-23T04:47:31.668Z,87.23
2019-03-23T04:50:00.442Z,88.00
2019-03-23T04:52:29.145Z,79.53
2019-03-23T04:54:58.119Z,90.60
2019-03-23T04:57:26.778Z,85.67
2019-03-23T04:59:55.907Z,93.40
2019-03-23T05:02:25.007Z,84.90
2019-03-23T05:04:53.648Z,82.97
2019-03-23T05:07:22.299Z,84.87
2019-03-23T05:09:51.094Z,81.80
2019-03-23T05:12:19.774Z,80.23
2019-03-23T05:14:48.422Z,85.80
2019-03-23T05:17:17.240Z,86.50
2019-03-23T05:19:45.932Z,89.47
2019-03-23T05:22:14.930Z,87.03
2019-03-23T05:24:43.737Z,87.23
2019-03-23T05:27:12.455Z,85.20
2019-03-23T05:29:41.153Z,82.87
2019-03-23T05:32:09.751Z,87.20
2019-03-23T05:34:38.425Z,85.93
2019-03-23T05:37:07.161Z,87.30
2019-03-23T05:39:35.841Z,82.90
2019-03-23T05:42:04.609Z,86.83
2019-03-23T05:44:33.359Z,88.80
2019-03-23T05:47:02.008Z,89.63
2019-03-23T05:49:30.598Z,87.83
2019-03-23T05:52:01.469Z,88.83
2019-03-23T05:54:29.657Z,86.23
2019-03-23T05:56:58.493Z,92.57
2019-03-23T05:59:27.144Z,85.53
2019-03-23T06:01:55.865Z,88.10
2019-03-23T06:04:24.444Z,85.00
2019-03-23T06:06:53.024Z,89.50
2019-03-23T06:09:21.769Z,84.47
2019-03-23T06:11:50.538Z,84.53
2019-03-23T06:14:19.154Z,84.57
2019-03-23T06:16:47.919Z,84.70
2019-03-23T06:19:16.549Z,90.27
2019-03-23T06:21:45.529Z,94.50
2019-03-23T06:24:14.213Z,86.30
2019-03-23T06:26:43.057Z,90.17
2019-03-23T06:32:31.172Z,88.23
2019-03-23T06:35:00.023Z,89.93
2019-03-23T06:37:31.262Z,95.97
2019-03-23T06:40:16.826Z,92.27
2019-03-23T06:42:59.842Z,85.20
2019-03-23T06:45:46.070Z,88.03
2019-03-23T06:51:43.321Z,79.40
2019-03-23T06:54:32.631Z,84.47
2019-03-23T06:57:01.502Z,89.47
2019-03-23T06:59:31.030Z,81.63
2019-03-23T07:01:59.805Z,85.17
2019-03-23T07:04:28.637Z,86.57
2019-03-23T07:06:58.032Z,81.40
2019-03-23T07:09:26.773Z,83.13
2019-03-23T07:11:55.782Z,79.17
2019-03-23T07:14:24.603Z,82.70
2019-03-23T07:16:53.359Z,82.27
2019-03-23T07:19:22.040Z,87.00
2019-03-23T07:21:50.863Z,84.20
2019-03-23T07:24:19.585Z,83.80
2019-03-23T07:26:48.337Z,79.97
2019-03-23T07:29:17.020Z,84.57
2019-03-23T07:31:45.742Z,81.43
2019-03-23T07:34:14.532Z,79.13
2019-03-23T07:36:43.206Z,80.47
2019-03-23T07:39:11.908Z,83.13
2019-03-23T07:41:40.687Z,82.40
2019-03-23T07:44:09.643Z,89.90
2019-03-23T07:46:38.512Z,77.80
2019-03-23T07:49:08.809Z,81.73
2019-03-23T07:51:37.507Z,83.37
2019-03-23T07:54:06.492Z,81.37
2019-03-23T07:56:35.223Z,79.77
2019-03-23T07:59:04.377Z,84.13
2019-03-23T08:01:33.200Z,80.30
2019-03-23T08:04:01.956Z,81.53
2019-03-23T08:06:30.633Z,78.13
2019-03-23T08:08:59.894Z,77.57
2019-03-23T08:11:28.630Z,81.07
2019-03-23T08:13:57.409Z,81.97
2019-03-23T08:16:26.073Z,76.03
2019-03-23T08:18:54.763Z,83.07
2019-03-23T08:21:23.415Z,83.70
2019-03-23T08:23:52.423Z,86.20
2019-03-23T08:26:21.223Z,85.33
2019-03-23T08:28:50.397Z,86.53
2019-03-23T08:31:19.268Z,79.27
2019-03-23T08:33:52.000Z,83.40
2019-03-23T08:36:19.148Z,90.03
2019-03-23T08:38:51.612Z,82.87
2019-03-23T08:41:22.121Z,81.97
2019-03-23T08:43:51.069Z,80.73
2019-03-23T08:47:19.417Z,77.13
2019-03-23T08:49:44.609Z,74.90
2019-03-23T08:52:18.212Z,77.33
2019-03-23T08:54:53.288Z,75.47
2019-03-23T08:57:41.523Z,65.67
2019-03-23T09:00:11.356Z,69.50
2019-03-23T09:02:45.034Z,72.60
2019-03-23T09:05:13.960Z,70.10
2019-03-23T09:08:03.524Z,70.23
2019-03-23T09:10:38.970Z,69.13
2019-03-23T09:13:16.593Z,66.37
2019-03-23T09:15:48.710Z,66.53
2019-03-23T09:18:17.529Z,65.13
2019-03-23T09:20:55.467Z,61.77
2019-03-23T09:32:52.060Z,57.07
2019-03-23T09:35:20.748Z,59.77
2019-03-23T09:37:49.314Z,58.70
2019-03-23T09:40:17.939Z,63.73
2019-03-23T09:42:46.528Z,57.00
2019-03-23T09:45:15.289Z,60.40
2019-03-23T09:47:44.006Z,54.07
2019-03-23T09:50:12.780Z,59.40
2019-03-23T09:52:41.369Z,52.77
2019-03-23T09:55:10.340Z,51.90
2019-03-23T09:57:38.955Z,57.07
2019-03-23T10:00:10.834Z,57.10
2019-03-23T10:02:39.413Z,57.93
2019-03-23T10:05:08.224Z,54.50
2019-03-23T10:07:36.897Z,54.07
2019-03-23T10:10:06.931Z,53.77
2019-03-23T10:12:35.648Z,50.23
2019-03-23T10:15:06.451Z,54.47
2019-03-23T10:17:35.154Z,51.80
2019-03-23T10:20:06.820Z,49.77
2019-03-23T10:22:35.413Z,52.97
2019-03-23T10:25:06.137Z,50.57
2019-03-23T10:27:34.792Z,55.27
2019-03-23T10:30:04.747Z,54.43
2019-03-23T10:32:33.333Z,51.97
2019-03-23T10:35:01.902Z,53.83
2019-03-23T10:37:30.591Z,51.77
2019-03-23T10:39:59.217Z,47.63
2019-03-23T10:42:27.796Z,52.87
2019-03-23T10:44:56.770Z,54.17
2019-03-23T10:47:25.450Z,52.57
2019-03-23T10:49:54.086Z,50.33
2019-03-23T10:52:22.660Z,50.23
2019-03-23T10:54:51.248Z,48.60
2019-03-23T10:57:19.936Z,47.10
2019-03-23T10:59:48.539Z,52.60
2019-03-23T11:02:17.120Z,49.40
2019-03-23T11:04:45.719Z,46.03
2019-03-23T11:07:15.402Z,54.47
2019-03-23T11:09:44.178Z,45.30
2019-03-23T11:12:12.751Z,50.97
2019-03-23T11:14:41.358Z,47.90
2019-03-23T11:17:09.930Z,49.73
2019-03-23T11:19:38.492Z,50.20
2019-03-23T11:22:07.151Z,49.60
2019-03-23T11:24:35.761Z,48.60
2019-03-23T11:27:04.389Z,50.50
2019-03-23T11:29:32.962Z,49.43
2019-03-23T11:32:01.559Z,50.50
2019-03-23T11:34:30.123Z,48.63
2019-03-23T11:36:58.782Z,47.17
2019-03-23T11:39:27.345Z,44.47
2019-03-23T11:41:55.927Z,45.07
2019-03-23T11:44:24.498Z,46.27
2019-03-23T11:46:53.142Z,43.30
2019-03-23T11:49:21.735Z,44.10
2019-03-23T11:51:50.328Z,43.97
2019-03-23T11:54:18.981Z,40.67
2019-03-23T11:56:47.579Z,36.83
2019-03-23T11:59:16.165Z,38.00
2019-03-23T12:01:51.765Z,34.53
2019-03-23T12:04:14.984Z,32.93
2019-03-23T12:06:43.960Z,33.53
2019-03-23T12:09:12.588Z,28.23
2019-03-23T12:11:41.240Z,26.63
2019-03-23T12:14:09.970Z,20.80
2019-03-23T12:16:38.554Z,24.10
2019-03-23T12:19:07.202Z,19.17
2019-03-23T12:21:35.783Z,17.93
2019-03-23T12:24:04.836Z,17.07
2019-03-23T12:26:33.466Z,17.97
2019-03-23T12:29:02.119Z,19.80
2019-03-23T12:31:31.014Z,16.83
2019-03-23T12:33:59.682Z,12.33
2019-03-23T12:36:28.244Z,16.63
2019-03-23T12:38:56.908Z,15.37
2019-03-23T12:41:25.840Z,18.97
2019-03-23T12:43:54.495Z,16.70
2019-03-23T12:46:23.054Z,17.43
2019-03-23T12:48:51.652Z,21.53
2019-03-23T12:51:20.218Z,15.07
2019-03-23T12:53:49.279Z,19.40
2019-03-23T12:56:17.825Z,14.57
2019-03-23T12:58:46.413Z,22.67
2019-03-23T13:01:14.995Z,16.17
2019-03-23T13:03:43.580Z,15.50
2019-03-23T13:06:12.159Z,18.97
2019-03-23T13:08:40.754Z,16.50
2019-03-23T13:11:09.703Z,16.93
2019-03-23T13:13:38.297Z,17.20
2019-03-23T13:16:06.868Z,19.33
2019-03-23T13:18:35.450Z,17.77
2019-03-23T13:21:04.185Z,18.87
2019-03-23T13:23:33.099Z,16.93
2019-03-23T13:26:01.675Z,12.17
2019-03-23T13:28:30.245Z,14.93
2019-03-23T13:30:58.849Z,14.63
2019-03-23T13:33:27.481Z,11.13
2019-03-23T13:35:56.048Z,12.53
2019-03-23T13:38:24.984Z,13.17
2019-03-23T13:40:53.558Z,11.63
2019-03-23T13:43:22.203Z,12.63
2019-03-23T13:45:50.892Z,11.53
2019-03-23T13:48:19.454Z,18.77
2019-03-23T13:50:48.057Z,13.70
2019-03-23T13:53:16.598Z,22.13
2019-03-23T13:55:45.161Z,16.53
2019-03-23T13:58:16.716Z,15.30
2019-03-23T14:00:45.345Z,18.70
2019-03-23T14:03:14.006Z,20.97
2019-03-23T14:05:42.646Z,18.60
2019-03-23T14:08:11.256Z,22.77
2019-03-23T14:10:40.114Z,20.27
2019-03-23T14:13:08.697Z,21.20
2019-03-23T14:15:37.345Z,21.37
2019-03-23T14:18:06.060Z,14.30
2019-03-23T14:20:34.803Z,24.43
2019-03-23T14:23:03.451Z,19.90
2019-03-23T14:25:32.032Z,20.20
2019-03-23T14:28:00.613Z,15.97
2019-03-23T14:30:29.243Z,22.50
2019-03-23T14:32:57.870Z,18.97
2019-03-23T14:35:26.471Z,19.33
2019-03-23T14:37:55.012Z,20.90
2019-03-23T14:40:23.873Z,17.77
2019-03-23T14:42:52.580Z,19.50
2019-03-23T14:45:21.149Z,19.40
2019-03-23T14:47:49.755Z,20.23
2019-03-23T14:50:18.333Z,15.50
2019-03-23T14:52:46.982Z,19.23
2019-03-23T14:55:16.014Z,15.60
2019-03-23T14:57:45.119Z,19.40
2019-03-23T15:00:15.572Z,16.50
2019-03-23T15:02:44.155Z,20.20
2019-03-23T15:05:12.800Z,16.87
2019-03-23T15:07:41.436Z,26.30
2019-03-23T15:10:10.481Z,18.20
2019-03-23T15:12:39.155Z,16.93
2019-03-23T15:15:08.945Z,21.13
2019-03-23T15:17:37.592Z,23.23
2019-03-23T15:20:09.011Z,22.10
2019-03-23T15:22:37.660Z,24.03
2019-03-23T15:25:06.783Z,17.70
2019-03-23T15:27:35.351Z,23.37
2019-03-23T15:30:06.381Z,19.20
2019-03-23T15:32:35.013Z,21.80
2019-03-23T15:35:05.862Z,15.67
2019-03-23T15:37:34.792Z,21.80
2019-03-23T15:40:04.165Z,18.07
2019-03-23T15:42:32.718Z,19.83
2019-03-23T15:45:01.504Z,24.90
2019-03-23T15:47:30.104Z,19.97
2019-03-23T15:49:58.673Z,23.97
2019-03-23T15:52:27.593Z,20.00
2019-03-23T15:54:56.154Z,20.43
2019-03-23T15:57:24.728Z,19.23
2019-03-23T15:59:53.419Z,16.47
2019-03-23T16:02:22.081Z,25.83
2019-03-23T16:04:50.725Z,21.37
2019-03-23T16:07:29.046Z,22.40
2019-03-23T16:09:49.647Z,12.73
2019-03-23T16:12:18.297Z,18.90
2019-03-23T16:14:46.862Z,19.93
2019-03-23T16:17:15.522Z,22.13
2019-03-23T16:19:44.084Z,13.90
2019-03-23T16:22:12.659Z,24.77
2019-03-23T16:24:41.223Z,23.47
2019-03-23T16:27:09.830Z,22.40
2019-03-23T16:29:38.395Z,20.20
2019-03-23T16:32:06.988Z,33.13
2019-03-23T16:34:35.575Z,21.07
2019-03-23T16:37:04.220Z,19.30
2019-03-23T16:39:32.810Z,18.87
2019-03-23T16:42:01.456Z,16.93
2019-03-23T16:44:30.046Z,27.63
2019-03-23T16:46:58.616Z,20.83
2019-03-23T16:49:27.456Z,15.37
2019-03-23T16:51:56.014Z,20.70
2019-03-23T16:54:25.018Z,20.93
2019-03-23T16:56:53.601Z,19.57
2019-03-23T16:59:22.255Z,19.63
2019-03-23T17:01:50.894Z,29.03
2019-03-23T17:04:19.495Z,24.73
2019-03-23T17:06:48.073Z,23.67
2019-03-23T17:09:16.636Z,23.63
2019-03-23T17:11:45.201Z,24.27
2019-03-23T17:14:13.879Z,24.40
2019-03-23T17:16:42.452Z,26.57
2019-03-23T17:19:11.016Z,18.77
2019-03-23T17:21:39.592Z,21.90
2019-03-23T17:24:08.237Z,26.40
2019-03-23T17:26:36.799Z,23.07
2019-03-23T17:29:05.657Z,28.53
2019-03-23T17:31:34.243Z,23.97
2019-03-23T17:34:02.793Z,26.10
2019-03-23T17:36:31.367Z,24.73
2019-03-23T17:38:59.949Z,34.50
2019-03-23T17:41:28.574Z,29.30
2019-03-23T17:43:57.174Z,30.37
2019-03-23T17:46:27.732Z,26.07
2019-03-23T17:48:56.048Z,30.73
2019-03-23T17:51:24.671Z,29.73
2019-03-23T17:53:58.445Z,21.40
2019-03-23T17:56:23.502Z,24.47
2019-03-23T17:58:52.073Z,32.83
2019-03-23T18:01:20.660Z,26.50
2019-03-23T18:03:49.290Z,23.13
2019-03-23T18:06:17.953Z,24.10
2019-03-23T18:08:46.483Z,24.17
2019-03-23T18:11:15.131Z,29.13
2019-03-23T18:13:43.764Z,25.47
2019-03-23T18:16:12.356Z,30.13
2019-03-23T18:18:40.914Z,20.70
2019-03-23T18:21:09.610Z,28.00
2019-03-23T18:23:38.229Z,23.83
2019-03-23T18:26:06.941Z,20.87
2019-03-23T18:28:35.588Z,24.77
2019-03-23T18:31:04.214Z,22.17
2019-03-23T18:33:32.823Z,21.97
2019-03-23T18:36:01.439Z,30.20
2019-03-23T18:38:30.151Z,20.67
2019-03-23T18:40:58.861Z,20.60
2019-03-23T18:43:28.056Z,26.43
2019-03-23T18:45:56.768Z,22.33
2019-03-23T18:48:25.301Z,18.47
2019-03-23T18:50:53.941Z,18.13
2019-03-23T18:53:24.023Z,22.57
2019-03-23T18:55:52.907Z,25.90
2019-03-23T18:58:21.485Z,21.83
2019-03-23T19:00:50.179Z,19.77
2019-03-23T19:03:18.766Z,18.83
2019-03-23T19:05:47.348Z,25.03
2019-03-23T19:08:15.933Z,28.07
2019-03-23T19:10:44.456Z,24.37
2019-03-23T19:13:13.162Z,19.77
2019-03-23T19:15:41.802Z,23.27
2019-03-23T19:18:10.535Z,27.77
2019-03-23T19:20:39.234Z,22.23
2019-03-23T19:23:08.264Z,22.17
2019-03-23T19:25:36.889Z,23.80
2019-03-23T19:28:05.661Z,19.83
2019-03-23T19:30:34.181Z,19.63
2019-03-23T19:33:02.748Z,21.60
2019-03-23T19:35:31.423Z,20.87
2019-03-23T19:38:00.070Z,14.27
2019-03-23T19:40:29.098Z,17.67
2019-03-23T19:42:59.539Z,19.40
2019-03-23T19:45:28.063Z,19.10
2019-03-23T19:47:56.700Z,21.17
2019-03-23T19:50:25.307Z,24.83
2019-03-23T19:52:53.887Z,17.37
2019-03-23T19:55:22.891Z,19.27
2019-03-23T19:57:54.589Z,23.40
2019-03-23T20:00:21.945Z,25.23
2019-03-23T20:02:50.541Z,24.17
2019-03-23T20:05:19.320Z,21.07
2019-03-23T20:07:47.986Z,25.63
2019-03-23T20:10:16.868Z,22.67
2019-03-23T20:12:45.463Z,19.43
2019-03-23T20:15:14.665Z,21.90
2019-03-23T20:17:43.313Z,21.93
2019-03-23T20:20:12.514Z,15.83
2019-03-23T20:22:41.219Z,21.83
2019-03-23T20:25:11.959Z,25.15
2019-03-23T20:27:40.621Z,25.43
2019-03-23T20:30:12.508Z,29.50
2019-03-23T20:32:41.508Z,29.17
2019-03-23T20:35:10.406Z,23.00
2019-03-23T20:37:39.070Z,30.23
2019-03-23T20:40:08.508Z,31.20
2019-03-23T20:42:37.168Z,29.07
2019-03-23T20:45:07.405Z,26.05
2019-03-23T20:47:36.709Z,24.67
2019-03-23T20:50:07.726Z,29.45
2019-03-23T20:52:36.774Z,24.87
2019-03-23T20:55:08.453Z,19.05
2019-03-23T20:57:37.833Z,26.50
2019-03-23T21:00:07.973Z,22.70
2019-03-23T21:02:36.613Z,20.50
2019-03-23T21:05:06.362Z,22.40
2019-03-23T21:07:35.250Z,26.75
2019-03-23T21:10:04.988Z,29.18
2019-03-23T21:12:33.543Z,33.10
2019-03-23T21:15:02.173Z,29.15
2019-03-23T21:17:30.729Z,29.25
2019-03-23T21:19:59.328Z,30.77
2019-03-23T21:22:27.994Z,27.73
2019-03-23T21:24:56.513Z,24.23
2019-03-23T21:27:25.124Z,24.50
2019-03-23T21:29:53.684Z,26.90
2019-03-23T21:32:22.274Z,27.95
2019-03-23T21:34:50.864Z,24.07
2019-03-23T21:37:19.506Z,24.92
2019-03-23T21:39:48.034Z,22.62
2019-03-23T21:42:16.632Z,28.50
2019-03-23T21:44:45.228Z,27.85
2019-03-23T21:47:13.830Z,28.10
2019-03-23T21:49:42.383Z,22.32
2019-03-23T21:52:10.959Z,21.07
2019-03-23T21:54:39.549Z,28.65
2019-03-23T21:57:08.187Z,28.40
2019-03-23T21:59:37.131Z,40.55
2019-03-23T22:02:05.765Z,25.88
2019-03-23T22:04:34.376Z,29.35
2019-03-23T22:07:02.991Z,20.20
2019-03-23T22:09:31.565Z,26.02
2019-03-23T22:12:00.131Z,32.38
2019-03-23T22:14:28.735Z,30.15
2019-03-23T22:16:57.326Z,28.62
2019-03-23T22:19:26.253Z,26.05
2019-03-23T22:21:54.887Z,21.45
2019-03-23T22:24:23.497Z,27.22
2019-03-23T22:26:52.411Z,23.02
2019-03-23T22:29:20.988Z,29.52
2019-03-23T22:31:49.664Z,26.20
2019-03-23T22:34:18.248Z,24.98
2019-03-23T22:36:46.900Z,23.45
2019-03-23T22:39:15.854Z,29.87
2019-03-23T22:41:44.441Z,21.40
2019-03-23T22:44:13.019Z,25.23
2019-03-23T22:46:41.635Z,26.97
2019-03-23T22:49:10.227Z,28.35
2019-03-23T22:51:38.851Z,23.95
2019-03-23T22:54:07.403Z,24.30
2019-03-23T22:56:36.001Z,25.80
2019-03-23T22:59:04.630Z,27.58
2019-03-23T23:01:33.356Z,23.35
2019-03-23T23:04:01.986Z,31.68
2019-03-23T23:06:30.566Z,28.32
2019-03-23T23:08:59.140Z,19.12
2019-03-23T23:11:27.725Z,27.00
2019-03-23T23:13:56.299Z,23.02
2019-03-23T23:16:25.149Z,28.75
2019-03-23T23:18:53.711Z,29.20
2019-03-23T23:21:22.307Z,28.83
2019-03-23T23:23:50.894Z,18.40
2019-03-23T23:26:19.464Z,25.65
2019-03-23T23:28:48.106Z,25.75
2019-03-23T23:31:16.768Z,26.85
2019-03-23T23:33:45.346Z,24.40
2019-03-23T23:36:14.009Z,25.35
2019-03-23T23:38:42.570Z,24.07
2019-03-23T23:41:11.572Z,26.60
2019-03-23T23:43:40.211Z,31.10
2019-03-23T23:46:08.785Z,33.45
2019-03-23T23:48:37.399Z,24.87
2019-03-23T23:51:06.382Z,27.55
2019-03-23T23:53:35.124Z,30.27
2019-03-23T23:56:03.774Z,28.40
2019-03-23T23:58:32.364Z,30.23
